Bradbury, California
Current Conditions -  °F | °C
As of 11:45 AM on Saturday 25 Oct 2014 (Local Time) from KEMT Reporting Station
Clear Clear  
Wind Chill: 79°   Ceiling: Unl
Heat Index: 79°   Visibility: 10mi
Dew Point: 54°   Wind: 9mph
Humidity: 42%   Direction: 190°S
Pressure: 30.06"   Gusts: NA
Location:  34.1448°N, 117.959°W
Report Text: KEMT 251845Z 19008KT 10SM CLR 26/12 A3006
Loading
Personal Weather Stations






























Interactive Weather Map
Tropical Storm Tracking
New forecast layout! Learn more

10-Day Weather Forecast

Advertisements
Track Severe Weather on mobile